createdAt,value
2018-05-18T00:00:07.651Z,8.33
2018-05-18T00:01:07.609Z,8.31
2018-05-18T00:02:07.623Z,8.31
2018-05-18T00:03:07.668Z,8.3
2018-05-18T00:04:07.646Z,8.27
2018-05-18T00:05:07.657Z,8.25
2018-05-18T00:06:07.791Z,8.3
2018-05-18T00:07:07.675Z,8.31
2018-05-18T00:08:07.660Z,8.25
2018-05-18T00:09:07.820Z,8.24
2018-05-18T00:10:07.643Z,8.29
2018-05-18T00:11:07.634Z,8.21
2018-05-18T00:12:07.700Z,8.3
2018-05-18T00:13:07.651Z,8.29
2018-05-18T00:14:07.664Z,8.3
2018-05-18T00:15:07.604Z,8.26
2018-05-18T00:16:07.617Z,8.25
2018-05-18T00:17:07.663Z,8.26
2018-05-18T00:18:07.607Z,8.25
2018-05-18T00:19:07.616Z,8.26
2018-05-18T00:20:07.644Z,8.25
2018-05-18T00:21:07.658Z,8.25
2018-05-18T00:22:07.640Z,8.26
2018-05-18T00:23:07.676Z,8.23
2018-05-18T00:24:07.614Z,8.21
2018-05-18T00:25:07.634Z,8.25
2018-05-18T00:26:07.639Z,8.24
2018-05-18T00:27:07.624Z,8.27
2018-05-18T00:28:07.654Z,8.28
2018-05-18T00:29:07.617Z,8.25
2018-05-18T00:30:07.649Z,8.22
2018-05-18T00:31:07.661Z,8.23
2018-05-18T00:32:07.645Z,8.26
2018-05-18T00:33:07.686Z,8.26
2018-05-18T00:34:07.649Z,8.22
2018-05-18T00:35:07.615Z,8.21
2018-05-18T00:36:07.620Z,8.19
2018-05-18T00:37:07.672Z,8.16
2018-05-18T00:38:07.669Z,8.16
2018-05-18T00:39:07.663Z,8.19
2018-05-18T00:40:07.629Z,8.16
2018-05-18T00:41:07.643Z,8.17
2018-05-18T00:42:07.633Z,8.16
2018-05-18T00:43:07.624Z,8.17
2018-05-18T00:44:07.681Z,8.16
2018-05-18T00:45:07.653Z,8.13
2018-05-18T00:46:07.818Z,8.1
2018-05-18T00:47:07.685Z,8.07
2018-05-18T00:48:07.679Z,8.07
2018-05-18T00:49:07.644Z,8.07
2018-05-18T00:50:07.663Z,8.07
2018-05-18T00:51:07.686Z,8.06
2018-05-18T00:52:07.694Z,8.05
2018-05-18T00:53:07.659Z,8.03
2018-05-18T00:54:07.660Z,8.01
2018-05-18T00:55:07.691Z,8
2018-05-18T00:56:07.631Z,8.01
2018-05-18T00:57:07.660Z,8.03
2018-05-18T00:58:07.657Z,8.01
2018-05-18T00:59:07.646Z,8.01
2018-05-18T01:00:07.731Z,7.98
2018-05-18T01:01:07.796Z,7.96
2018-05-18T01:02:07.682Z,7.95
2018-05-18T01:03:07.805Z,7.99
2018-05-18T01:04:07.688Z,8
2018-05-18T01:05:07.684Z,7.99
2018-05-18T01:06:07.671Z,7.98
2018-05-18T01:07:07.651Z,7.99
2018-05-18T01:08:07.691Z,7.98
2018-05-18T01:09:07.683Z,7.98
2018-05-18T01:10:07.729Z,7.96
2018-05-18T01:11:07.651Z,7.97
2018-05-18T01:12:07.673Z,7.92
2018-05-18T01:13:07.675Z,7.9
2018-05-18T01:14:07.642Z,7.88
2018-05-18T01:15:08.216Z,7.87
2018-05-18T01:16:07.719Z,7.89
2018-05-18T01:17:07.654Z,7.87
2018-05-18T01:18:07.739Z,7.87
2018-05-18T01:19:07.803Z,7.85
2018-05-18T01:20:07.692Z,7.85
2018-05-18T01:21:07.653Z,7.89
2018-05-18T01:22:07.774Z,7.89
2018-05-18T01:23:07.700Z,7.87
2018-05-18T01:24:07.682Z,7.87
2018-05-18T01:25:07.689Z,7.85
2018-05-18T01:26:07.739Z,7.86
2018-05-18T01:27:07.696Z,7.85
2018-05-18T01:28:07.700Z,7.85
2018-05-18T01:29:07.732Z,7.85
2018-05-18T01:30:07.668Z,7.87
2018-05-18T01:31:07.678Z,7.86
2018-05-18T01:32:07.689Z,7.85
2018-05-18T01:33:08.025Z,7.87
2018-05-18T01:34:07.700Z,7.84
2018-05-18T01:35:07.706Z,7.89
2018-05-18T01:36:07.699Z,7.87
2018-05-18T01:37:07.675Z,7.88
2018-05-18T01:38:07.686Z,7.85
2018-05-18T01:39:07.660Z,7.86
2018-05-18T01:40:07.668Z,7.83
2018-05-18T01:41:07.808Z,7.8
2018-05-18T01:42:07.655Z,7.82
2018-05-18T01:43:07.705Z,7.82
2018-05-18T01:44:07.675Z,7.85
2018-05-18T01:45:07.646Z,7.82
2018-05-18T01:46:07.653Z,7.83
2018-05-18T01:47:07.688Z,7.82
2018-05-18T01:48:07.673Z,7.8
2018-05-18T01:49:07.691Z,7.77
2018-05-18T01:50:07.689Z,7.76
2018-05-18T01:51:08.055Z,7.76
2018-05-18T01:52:07.667Z,7.75
2018-05-18T01:53:07.688Z,7.74
2018-05-18T01:54:07.701Z,7.72
2018-05-18T01:55:07.776Z,7.71
2018-05-18T01:56:07.707Z,7.74
2018-05-18T01:57:07.696Z,7.73
2018-05-18T01:58:07.702Z,7.75
2018-05-18T01:59:07.684Z,7.74
2018-05-18T02:00:07.673Z,7.71
2018-05-18T02:01:08.004Z,7.71
2018-05-18T02:02:07.648Z,7.71
2018-05-18T02:03:07.641Z,7.68
2018-05-18T02:04:07.671Z,7.68
2018-05-18T02:05:07.806Z,7.67
2018-05-18T02:06:07.677Z,7.68
2018-05-18T02:07:07.676Z,7.67
2018-05-18T02:08:07.695Z,7.68
2018-05-18T02:09:07.668Z,7.66
2018-05-18T02:10:07.657Z,7.67
2018-05-18T02:11:07.700Z,7.67
2018-05-18T02:12:07.765Z,7.68
2018-05-18T02:13:07.716Z,7.67
2018-05-18T02:14:07.729Z,7.67
2018-05-18T02:15:07.676Z,7.66
2018-05-18T02:16:07.658Z,7.62
2018-05-18T02:17:07.678Z,7.61
2018-05-18T02:18:07.748Z,7.63
2018-05-18T02:19:07.717Z,7.64
2018-05-18T02:20:07.651Z,7.65
2018-05-18T02:21:07.675Z,7.62
2018-05-18T02:22:07.826Z,7.61
2018-05-18T02:23:07.864Z,7.61
2018-05-18T02:24:07.679Z,7.59
2018-05-18T02:25:07.826Z,7.61
2018-05-18T02:26:07.685Z,7.59
2018-05-18T02:27:07.663Z,7.6
2018-05-18T02:28:07.683Z,7.6
2018-05-18T02:29:07.704Z,7.61
2018-05-18T02:30:07.658Z,7.58
2018-05-18T02:31:07.665Z,7.6
2018-05-18T02:32:07.697Z,7.6
2018-05-18T02:33:07.671Z,7.6
2018-05-18T02:34:07.707Z,7.61
2018-05-18T02:35:07.677Z,7.62
2018-05-18T02:36:07.704Z,7.63
2018-05-18T02:37:07.676Z,7.61
2018-05-18T02:38:07.664Z,7.62
2018-05-18T02:39:07.777Z,7.61
2018-05-18T02:40:07.677Z,7.59
2018-05-18T02:41:07.698Z,7.59
2018-05-18T02:42:07.719Z,7.58
2018-05-18T02:43:07.680Z,7.59
2018-05-18T02:44:07.682Z,7.59
2018-05-18T02:45:07.680Z,7.57
2018-05-18T02:46:07.716Z,7.57
2018-05-18T02:47:07.791Z,7.55
2018-05-18T02:48:07.869Z,7.57
2018-05-18T02:49:07.808Z,7.55
2018-05-18T02:50:07.697Z,7.58
2018-05-18T02:51:07.692Z,7.6
2018-05-18T02:52:07.692Z,7.56
2018-05-18T02:53:07.675Z,7.61
2018-05-18T02:54:07.685Z,7.59
2018-05-18T02:55:07.691Z,7.57
2018-05-18T02:56:07.870Z,7.58
2018-05-18T02:57:07.872Z,7.59
2018-05-18T02:58:07.706Z,7.6
2018-05-18T02:59:07.780Z,7.55
2018-05-18T03:00:07.719Z,7.58
2018-05-18T03:01:07.687Z,7.54
2018-05-18T03:02:07.714Z,7.56
2018-05-18T03:03:07.742Z,7.56
2018-05-18T03:04:07.698Z,7.57
2018-05-18T03:05:07.863Z,7.59
2018-05-18T03:06:07.812Z,7.59
2018-05-18T03:07:07.753Z,7.6
2018-05-18T03:08:07.751Z,7.58
2018-05-18T03:09:07.732Z,7.6
2018-05-18T03:10:07.744Z,7.57
2018-05-18T03:11:07.739Z,7.56
2018-05-18T03:12:07.741Z,7.6
2018-05-18T03:13:07.876Z,7.57
2018-05-18T03:14:07.731Z,7.58
2018-05-18T03:15:07.828Z,7.58
2018-05-18T03:16:07.785Z,7.59
2018-05-18T03:17:07.874Z,7.56
2018-05-18T03:18:07.841Z,7.56
2018-05-18T03:19:07.722Z,7.55
2018-05-18T03:20:07.785Z,7.55
2018-05-18T03:21:08.768Z,7.55
2018-05-18T03:22:07.699Z,7.56
2018-05-18T03:23:07.751Z,7.55
2018-05-18T03:24:07.702Z,7.54
2018-05-18T03:25:07.781Z,7.55
2018-05-18T03:26:07.727Z,7.54
2018-05-18T03:27:07.719Z,7.53
2018-05-18T03:28:07.827Z,7.56
2018-05-18T03:29:07.706Z,7.59
2018-05-18T03:30:07.739Z,7.58
2018-05-18T03:31:07.769Z,7.55
2018-05-18T03:32:07.714Z,7.55
2018-05-18T03:33:07.714Z,7.54
2018-05-18T03:34:07.723Z,7.57
2018-05-18T03:35:07.732Z,7.56
2018-05-18T03:36:07.728Z,7.58
2018-05-18T03:37:07.694Z,7.54
2018-05-18T03:38:07.721Z,7.52
2018-05-18T03:39:07.698Z,7.5
2018-05-18T03:40:07.725Z,7.51
2018-05-18T03:41:07.734Z,7.51
2018-05-18T03:42:07.706Z,7.47
2018-05-18T03:43:07.711Z,7.49
2018-05-18T03:44:07.761Z,7.47
2018-05-18T03:45:07.723Z,7.47
2018-05-18T03:46:07.695Z,7.56
2018-05-18T03:47:07.719Z,7.5
2018-05-18T03:48:07.698Z,7.51
2018-05-18T03:49:07.723Z,7.53
2018-05-18T03:50:07.696Z,7.49
2018-05-18T03:51:07.699Z,7.52
2018-05-18T03:52:07.695Z,7.54
2018-05-18T03:53:07.712Z,7.51
2018-05-18T03:54:07.712Z,7.51
2018-05-18T03:55:07.706Z,7.53
2018-05-18T03:56:07.809Z,7.5
2018-05-18T03:57:07.710Z,7.55
2018-05-18T03:58:07.728Z,7.55
2018-05-18T03:59:07.745Z,7.54
2018-05-18T04:00:07.770Z,7.52
2018-05-18T04:01:07.718Z,7.54
2018-05-18T04:02:07.730Z,7.54
2018-05-18T04:03:07.697Z,7.57
2018-05-18T04:04:07.703Z,7.55
2018-05-18T04:05:07.860Z,7.51
2018-05-18T04:06:07.747Z,7.52
2018-05-18T04:07:07.749Z,7.59
2018-05-18T04:08:07.722Z,7.57
2018-05-18T04:09:07.828Z,7.54
2018-05-18T04:10:07.776Z,7.6
2018-05-18T04:11:07.732Z,7.58
2018-05-18T04:12:07.780Z,7.6
2018-05-18T04:13:07.732Z,7.6
2018-05-18T04:14:07.705Z,7.57
2018-05-18T04:15:07.866Z,7.59
2018-05-18T04:16:07.751Z,7.6
2018-05-18T04:17:08.043Z,7.58
2018-05-18T04:18:07.722Z,7.6
2018-05-18T04:19:07.736Z,7.61
2018-05-18T04:20:07.737Z,7.57
2018-05-18T04:21:07.705Z,7.59
2018-05-18T04:22:07.744Z,7.55
2018-05-18T04:23:07.738Z,7.56
2018-05-18T04:24:07.712Z,7.57
2018-05-18T04:25:07.798Z,7.58
2018-05-18T04:26:07.751Z,7.58
2018-05-18T04:27:07.723Z,7.59
2018-05-18T04:28:07.734Z,7.58
2018-05-18T04:29:07.732Z,7.61
2018-05-18T04:30:08.323Z,7.62
2018-05-18T04:31:07.743Z,7.58
2018-05-18T04:32:07.838Z,7.6
2018-05-18T04:33:07.751Z,7.6
2018-05-18T04:34:07.721Z,7.56
2018-05-18T04:35:07.705Z,7.62
2018-05-18T04:36:07.876Z,7.62
2018-05-18T04:37:07.723Z,7.62
2018-05-18T04:38:07.960Z,7.64
2018-05-18T04:39:07.713Z,7.62
2018-05-18T04:40:07.745Z,7.65
2018-05-18T04:41:07.743Z,7.65
2018-05-18T04:42:07.766Z,7.7
2018-05-18T04:43:08.183Z,7.65
2018-05-18T04:44:07.810Z,7.66
2018-05-18T04:45:07.729Z,7.68
2018-05-18T04:46:07.761Z,7.67
2018-05-18T04:47:07.844Z,7.72
2018-05-18T04:48:08.003Z,7.68
2018-05-18T04:49:07.765Z,7.74
2018-05-18T04:50:07.716Z,7.74
2018-05-18T04:51:07.719Z,7.75
2018-05-18T04:52:07.782Z,7.72
2018-05-18T04:53:07.781Z,7.74
2018-05-18T04:54:07.753Z,7.76
2018-05-18T04:55:07.775Z,7.77
2018-05-18T04:56:07.788Z,7.72
2018-05-18T04:57:07.735Z,7.78
2018-05-18T04:58:07.853Z,7.76
2018-05-18T04:59:08.009Z,7.81
2018-05-18T05:00:07.729Z,7.79
2018-05-18T05:01:07.753Z,7.83
2018-05-18T05:02:07.747Z,7.78
2018-05-18T05:03:07.757Z,7.81
2018-05-18T05:04:07.765Z,7.86
2018-05-18T05:05:07.746Z,7.84
2018-05-18T05:06:07.727Z,7.84
2018-05-18T05:07:07.900Z,7.86
2018-05-18T05:08:07.734Z,7.85
2018-05-18T05:09:07.750Z,7.82
2018-05-18T05:10:07.727Z,7.88
2018-05-18T05:11:07.771Z,7.87
2018-05-18T05:12:07.746Z,7.9
2018-05-18T05:13:07.735Z,7.92
2018-05-18T05:14:07.761Z,7.92
2018-05-18T05:15:07.769Z,7.91
2018-05-18T05:16:07.784Z,7.95
2018-05-18T05:17:07.855Z,7.94
2018-05-18T05:18:07.866Z,8
2018-05-18T05:19:07.771Z,7.99
2018-05-18T05:20:07.873Z,7.99
2018-05-18T05:21:07.729Z,8
2018-05-18T05:22:08.180Z,8.01
2018-05-18T05:23:07.793Z,8.03
2018-05-18T05:24:07.750Z,7.96
2018-05-18T05:25:08.646Z,8
2018-05-18T05:26:07.737Z,7.99
2018-05-18T05:27:08.104Z,8.04
2018-05-18T05:28:07.852Z,8.04
2018-05-18T05:29:07.741Z,8.08
2018-05-18T05:30:07.762Z,8.03
2018-05-18T05:31:07.767Z,8.01
2018-05-18T05:32:07.746Z,8.01
2018-05-18T05:33:07.760Z,7.98
2018-05-18T05:34:07.779Z,8.02
2018-05-18T05:35:07.761Z,8.05
2018-05-18T05:36:07.788Z,8.13
2018-05-18T05:37:07.750Z,8.08
2018-05-18T05:38:07.883Z,8.01
2018-05-18T05:39:07.792Z,8.05
2018-05-18T05:40:08.002Z,8.08
2018-05-18T05:41:07.812Z,8.1
2018-05-18T05:42:07.767Z,8.12
2018-05-18T05:43:07.798Z,8.07
2018-05-18T05:44:08.306Z,8.09
2018-05-18T05:45:07.766Z,8.12
2018-05-18T05:46:07.785Z,8.15
2018-05-18T05:47:07.772Z,8.21
2018-05-18T05:48:07.756Z,8.22
2018-05-18T05:49:07.828Z,8.19
2018-05-18T05:50:07.759Z,8.24
2018-05-18T05:51:07.788Z,8.27
2018-05-18T05:52:07.757Z,8.25
2018-05-18T05:53:07.806Z,8.27
2018-05-18T05:54:07.799Z,8.27
2018-05-18T05:55:07.751Z,8.3
2018-05-18T05:56:07.792Z,8.23
2018-05-18T05:57:07.754Z,8.25
2018-05-18T05:58:07.787Z,8.25
2018-05-18T05:59:07.858Z,8.23
2018-05-18T06:00:07.756Z,8.23
2018-05-18T06:01:07.810Z,8.26
2018-05-18T06:02:07.762Z,8.31
2018-05-18T06:03:07.776Z,8.27
2018-05-18T06:04:07.785Z,8.28
2018-05-18T06:05:07.764Z,8.31
2018-05-18T06:06:07.775Z,8.34
2018-05-18T06:07:07.769Z,8.37
2018-05-18T06:08:07.748Z,8.33
2018-05-18T06:09:07.783Z,8.35
2018-05-18T06:10:07.780Z,8.37
2018-05-18T06:11:07.765Z,8.4
2018-05-18T06:12:08.053Z,8.39
2018-05-18T06:13:07.807Z,8.4
2018-05-18T06:14:07.795Z,8.43
2018-05-18T06:15:07.819Z,8.47
2018-05-18T06:16:07.798Z,8.43
2018-05-18T06:17:07.802Z,8.44
2018-05-18T06:18:07.836Z,8.44
2018-05-18T06:19:07.803Z,8.39
2018-05-18T06:20:07.813Z,8.36
2018-05-18T06:21:07.799Z,8.32
2018-05-18T06:22:07.785Z,8.37
2018-05-18T06:23:07.763Z,8.4
2018-05-18T06:24:07.777Z,8.42
2018-05-18T06:25:07.773Z,8.48
2018-05-18T06:26:07.837Z,8.43
2018-05-18T06:27:07.844Z,8.42
2018-05-18T06:28:07.794Z,8.45
2018-05-18T06:29:07.813Z,8.52
2018-05-18T06:30:07.759Z,8.39
2018-05-18T06:31:07.798Z,8.44
2018-05-18T06:32:07.773Z,8.48
2018-05-18T06:33:07.768Z,8.51
2018-05-18T06:34:07.767Z,8.53
2018-05-18T06:35:08.888Z,8.56
2018-05-18T06:36:07.778Z,8.51
2018-05-18T06:37:07.785Z,8.48
2018-05-18T06:38:07.823Z,8.47
2018-05-18T06:39:07.852Z,8.39
2018-05-18T06:40:07.891Z,8.46
2018-05-18T06:41:08.081Z,8.46
2018-05-18T06:42:07.781Z,8.55
2018-05-18T06:43:07.767Z,8.47
2018-05-18T06:44:07.796Z,8.39
2018-05-18T06:45:07.873Z,8.44
2018-05-18T06:46:07.767Z,8.45
2018-05-18T06:47:07.793Z,8.43
2018-05-18T06:48:07.840Z,8.48
2018-05-18T06:49:07.811Z,8.49
2018-05-18T06:50:07.829Z,8.47
2018-05-18T06:51:07.812Z,8.51
2018-05-18T06:52:07.795Z,8.46
2018-05-18T06:53:07.960Z,8.42
2018-05-18T06:54:07.895Z,8.47
2018-05-18T06:55:08.048Z,8.5
2018-05-18T06:56:07.810Z,8.53
2018-05-18T06:57:07.803Z,8.51
2018-05-18T06:58:07.769Z,8.46
2018-05-18T06:59:07.933Z,8.54
2018-05-18T07:00:07.786Z,8.51
2018-05-18T07:01:07.805Z,8.58
2018-05-18T07:02:07.787Z,8.61
2018-05-18T07:03:07.781Z,8.68
2018-05-18T07:04:08.282Z,8.63
2018-05-18T07:05:07.790Z,8.53
2018-05-18T07:06:07.791Z,8.45
2018-05-18T07:07:07.792Z,8.51
2018-05-18T07:08:07.776Z,8.53
2018-05-18T07:09:07.808Z,8.67
2018-05-18T07:10:07.787Z,8.62
2018-05-18T07:11:07.810Z,8.64
2018-05-18T07:12:07.798Z,8.65
2018-05-18T07:13:07.817Z,8.62
2018-05-18T07:14:07.925Z,8.63
2018-05-18T07:15:08.046Z,8.66
2018-05-18T07:16:07.812Z,8.62
2018-05-18T07:17:07.913Z,8.62
2018-05-18T07:18:07.804Z,8.59
2018-05-18T07:19:07.823Z,8.63
2018-05-18T07:20:07.799Z,8.74
2018-05-18T07:21:07.847Z,8.64
2018-05-18T07:22:07.780Z,8.67
2018-05-18T07:23:08.690Z,8.59
2018-05-18T07:24:07.823Z,8.63
2018-05-18T07:25:07.803Z,8.53
2018-05-18T07:26:07.954Z,8.66
2018-05-18T07:27:07.860Z,8.67
2018-05-18T07:28:07.836Z,8.71
2018-05-18T07:29:07.923Z,8.7
2018-05-18T07:30:08.796Z,8.71
2018-05-18T07:31:07.855Z,8.65
2018-05-18T07:32:07.804Z,8.58
2018-05-18T07:33:07.823Z,8.52
2018-05-18T07:34:07.972Z,8.63
2018-05-18T07:35:07.818Z,8.72
2018-05-18T07:36:08.351Z,8.6
2018-05-18T07:37:07.923Z,8.55
2018-05-18T07:38:07.893Z,8.58
2018-05-18T07:39:07.828Z,8.66
2018-05-18T07:40:07.949Z,8.62
2018-05-18T07:41:07.830Z,8.62
2018-05-18T07:42:07.808Z,8.55
2018-05-18T07:43:07.827Z,8.62
2018-05-18T07:44:07.808Z,8.64
2018-05-18T07:45:07.939Z,8.61
2018-05-18T07:46:07.864Z,8.55
2018-05-18T07:47:07.827Z,8.57
2018-05-18T07:48:07.913Z,8.68
2018-05-18T07:49:07.793Z,8.66
2018-05-18T07:50:08.321Z,8.77
2018-05-18T07:51:07.829Z,8.67
2018-05-18T07:52:07.807Z,8.66
2018-05-18T07:53:07.815Z,8.65
2018-05-18T07:54:07.822Z,8.68
2018-05-18T07:55:07.801Z,8.73
2018-05-18T07:56:07.819Z,8.76
2018-05-18T07:57:07.817Z,8.69
2018-05-18T07:58:07.827Z,8.72
2018-05-18T07:59:07.835Z,8.59
2018-05-18T08:00:07.843Z,8.63
2018-05-18T08:01:07.824Z,8.55
2018-05-18T08:02:07.830Z,8.57
2018-05-18T08:03:07.816Z,8.48
2018-05-18T08:04:07.819Z,8.57
2018-05-18T08:05:07.816Z,8.63
2018-05-18T08:06:07.813Z,8.51
2018-05-18T08:07:07.806Z,8.61
2018-05-18T08:08:07.830Z,8.56
2018-05-18T08:09:07.900Z,8.38
2018-05-18T08:10:07.819Z,8.47
2018-05-18T08:11:07.815Z,8.42
2018-05-18T08:12:07.817Z,8.48
2018-05-18T08:13:07.812Z,8.58
2018-05-18T08:14:07.871Z,8.35
2018-05-18T08:15:08.206Z,8.55
2018-05-18T08:16:07.836Z,8.6
2018-05-18T08:17:07.824Z,8.49
2018-05-18T08:18:07.815Z,8.47
2018-05-18T08:19:07.839Z,8.58
2018-05-18T08:20:07.899Z,8.48
2018-05-18T08:21:07.821Z,8.48
2018-05-18T08:22:07.827Z,8.54
2018-05-18T08:23:07.835Z,8.47
2018-05-18T08:24:07.842Z,8.5
2018-05-18T08:25:07.849Z,8.56
2018-05-18T08:26:07.807Z,8.51
2018-05-18T08:27:08.361Z,8.49
2018-05-18T08:28:07.841Z,8.48
2018-05-18T08:29:07.971Z,8.53
2018-05-18T08:30:07.832Z,8.42
2018-05-18T08:31:08.007Z,8.39
2018-05-18T08:32:08.041Z,8.63
2018-05-18T08:33:07.862Z,8.61
2018-05-18T08:34:07.858Z,8.62
2018-05-18T08:35:07.854Z,8.46
2018-05-18T08:36:07.856Z,8.31
2018-05-18T08:37:07.842Z,8.36
2018-05-18T08:38:07.922Z,8.5
2018-05-18T08:39:08.282Z,8.45
2018-05-18T08:40:07.909Z,8.34
2018-05-18T08:41:07.815Z,8.37
2018-05-18T08:42:07.856Z,8.46
2018-05-18T08:43:07.816Z,8.4
2018-05-18T08:44:07.842Z,8.42
2018-05-18T08:45:08.235Z,8.4
2018-05-18T08:46:07.909Z,8.49
2018-05-18T08:47:07.895Z,8.53
2018-05-18T08:48:07.847Z,8.47
2018-05-18T08:49:08.016Z,8.49
2018-05-18T08:50:07.836Z,8.36
2018-05-18T08:51:07.837Z,8.46
2018-05-18T08:52:08.073Z,8.39
2018-05-18T08:53:07.845Z,8.34
2018-05-18T08:54:08.001Z,8.3
2018-05-18T08:55:07.885Z,8.34
2018-05-18T08:56:07.894Z,8.38
2018-05-18T08:57:08.666Z,8.37
2018-05-18T08:58:07.859Z,8.37
2018-05-18T08:59:07.824Z,8.34
2018-05-18T09:00:07.873Z,8.28
2018-05-18T09:01:07.844Z,8.34
2018-05-18T09:02:07.871Z,8.22
2018-05-18T09:03:07.846Z,8.24
2018-05-18T09:04:07.851Z,8.39
2018-05-18T09:05:07.917Z,8.49
2018-05-18T09:06:07.840Z,8.27
2018-05-18T09:07:07.846Z,8.33
2018-05-18T09:08:07.838Z,8.42
2018-05-18T09:09:07.912Z,8.32
2018-05-18T09:10:07.838Z,8.33
2018-05-18T09:11:07.895Z,8.41
2018-05-18T09:12:07.838Z,8.31
2018-05-18T09:13:07.837Z,8.46
2018-05-18T09:14:07.838Z,8.2
2018-05-18T09:15:07.860Z,8.3
2018-05-18T09:16:07.839Z,8.25
2018-05-18T09:17:07.836Z,8.3
2018-05-18T09:18:07.842Z,8.37
2018-05-18T09:19:07.870Z,8.26
2018-05-18T09:20:07.862Z,8.32
2018-05-18T09:21:07.909Z,8.35
2018-05-18T09:22:07.878Z,8.1
2018-05-18T09:23:07.890Z,8.28
2018-05-18T09:24:07.972Z,8.19
2018-05-18T09:25:07.872Z,8.2
2018-05-18T09:26:07.844Z,8.39
2018-05-18T09:27:07.873Z,8.56
2018-05-18T09:28:07.858Z,8.44
2018-05-18T09:29:07.833Z,8.49
2018-05-18T09:30:07.874Z,8.48
2018-05-18T09:31:07.868Z,8.4
2018-05-18T09:32:07.839Z,8.41
2018-05-18T09:33:07.856Z,8.37
2018-05-18T09:34:08.322Z,8.42
2018-05-18T09:35:07.864Z,8.18
2018-05-18T09:36:07.898Z,8.34
2018-05-18T09:37:07.871Z,8.2
2018-05-18T09:38:07.881Z,8.26
2018-05-18T09:39:08.035Z,8.2
2018-05-18T09:40:07.890Z,8.28
2018-05-18T09:41:07.871Z,8.4
2018-05-18T09:42:07.882Z,8.42
2018-05-18T09:43:07.904Z,8.52
2018-05-18T09:44:07.955Z,8.39
2018-05-18T09:45:08.494Z,8.36
2018-05-18T09:46:07.944Z,8.34
2018-05-18T09:47:07.889Z,8.43
2018-05-18T09:48:08.772Z,8.46
2018-05-18T09:49:08.512Z,8.4
2018-05-18T09:50:08.558Z,8.51
2018-05-18T09:51:08.530Z,8.38
2018-05-18T09:52:08.664Z,8.29
2018-05-18T09:53:08.294Z,8.26
2018-05-18T09:54:09.510Z,8.38
2018-05-18T09:55:10.923Z,8.42
2018-05-18T09:56:08.623Z,8.51
2018-05-18T09:57:07.886Z,8.41
2018-05-18T09:58:08.038Z,8.55
2018-05-18T09:59:08.082Z,8.65
2018-05-18T10:00:07.905Z,8.6
2018-05-18T10:01:07.886Z,8.63
2018-05-18T10:02:07.877Z,8.64
2018-05-18T10:03:07.885Z,8.46
2018-05-18T10:04:07.862Z,8.35
2018-05-18T10:05:07.905Z,8.41
2018-05-18T10:06:07.872Z,8.39
2018-05-18T10:07:07.888Z,8.53
2018-05-18T10:08:07.886Z,8.63
2018-05-18T10:09:08.075Z,8.51
2018-05-18T10:10:08.046Z,8.53
2018-05-18T10:11:07.875Z,8.57
2018-05-18T10:12:08.128Z,8.54
2018-05-18T10:13:07.920Z,8.42
2018-05-18T10:14:07.899Z,8.39
2018-05-18T10:15:08.037Z,8.48
2018-05-18T10:16:07.868Z,8.55
2018-05-18T10:17:07.876Z,8.71
2018-05-18T10:18:07.887Z,8.49
2018-05-18T10:19:07.904Z,8.58
2018-05-18T10:20:07.887Z,8.45
2018-05-18T10:21:07.902Z,8.48
2018-05-18T10:22:07.919Z,8.46
2018-05-18T10:23:07.897Z,8.3
2018-05-18T10:24:07.926Z,8.44
2018-05-18T10:25:07.871Z,8.42
2018-05-18T10:26:07.913Z,8.43
2018-05-18T10:27:07.956Z,8.41
2018-05-18T10:28:07.909Z,8.37
2018-05-18T10:29:07.904Z,8.42
2018-05-18T10:30:07.877Z,8.38
2018-05-18T10:31:07.870Z,8.23
2018-05-18T10:32:07.880Z,8.39
2018-05-18T10:33:07.884Z,8.32
2018-05-18T10:34:07.863Z,8.55
2018-05-18T10:35:07.886Z,8.61
2018-05-18T10:36:07.880Z,8.55
2018-05-18T10:37:07.929Z,8.64
2018-05-18T10:38:08.168Z,8.32
2018-05-18T10:39:07.877Z,8.34
2018-05-18T10:40:07.930Z,8.26
2018-05-18T10:41:07.920Z,8.37
2018-05-18T10:42:07.908Z,8.65
2018-05-18T10:43:07.939Z,8.69
2018-05-18T10:44:07.952Z,8.61
2018-05-18T10:45:07.912Z,8.56
2018-05-18T10:46:07.911Z,8.63
2018-05-18T10:47:08.542Z,8.27
2018-05-18T10:48:07.910Z,8.48
2018-05-18T10:49:08.658Z,8.37
2018-05-18T10:50:07.937Z,8.45
2018-05-18T10:51:07.929Z,8.41
2018-05-18T10:52:07.927Z,8.44
2018-05-18T10:53:08.795Z,8.53
2018-05-18T10:54:07.977Z,8.65
2018-05-18T10:55:08.006Z,8.54
2018-05-18T10:56:07.937Z,8.6
2018-05-18T10:57:08.177Z,8.77
2018-05-18T10:58:07.947Z,8.77
2018-05-18T10:59:08.637Z,8.53
2018-05-18T11:00:08.646Z,8.49
2018-05-18T11:01:08.925Z,8.3
2018-05-18T11:02:08.571Z,8.33
2018-05-18T11:03:09.084Z,8.57
2018-05-18T11:04:08.736Z,8.52
2018-05-18T11:05:08.957Z,8.5
2018-05-18T11:06:08.749Z,8.42
2018-05-18T11:07:08.494Z,8.3
2018-05-18T11:08:07.923Z,8.46
2018-05-18T11:09:07.990Z,8.5
2018-05-18T11:10:07.901Z,8.72
2018-05-18T11:11:07.914Z,8.57
2018-05-18T11:12:07.934Z,8.54
2018-05-18T11:13:07.901Z,8.71
2018-05-18T11:14:09.106Z,8.72
2018-05-18T11:15:07.988Z,8.51
2018-05-18T11:16:07.912Z,8.69
2018-05-18T11:17:07.919Z,8.53
2018-05-18T11:18:07.927Z,8.92
2018-05-18T11:19:07.958Z,8.81
2018-05-18T11:20:08.490Z,8.74
2018-05-18T11:21:07.952Z,8.67
2018-05-18T11:22:07.901Z,8.66
2018-05-18T11:23:07.931Z,8.62
2018-05-18T11:24:08.081Z,8.56
2018-05-18T11:25:08.049Z,8.86
2018-05-18T11:26:07.955Z,8.93
2018-05-18T11:27:07.930Z,8.56
2018-05-18T11:28:07.956Z,8.69
2018-05-18T11:29:07.939Z,8.72
2018-05-18T11:30:07.914Z,8.51
2018-05-18T11:31:07.957Z,8.66
2018-05-18T11:32:07.935Z,8.52
2018-05-18T11:33:08.368Z,8.46
2018-05-18T11:34:07.916Z,8.56
2018-05-18T11:35:07.917Z,8.53
2018-05-18T11:36:07.899Z,8.67
2018-05-18T11:37:07.904Z,8.69
2018-05-18T11:38:07.924Z,8.36
2018-05-18T11:39:08.448Z,8.45
2018-05-18T11:40:07.924Z,8.64
2018-05-18T11:41:08.010Z,8.83
2018-05-18T11:42:07.964Z,8.81
2018-05-18T11:43:07.941Z,8.76
2018-05-18T11:44:07.932Z,8.56
2018-05-18T11:45:07.984Z,8.47
2018-05-18T11:46:07.956Z,8.64
2018-05-18T11:47:07.920Z,8.54
2018-05-18T11:48:08.662Z,8.57
2018-05-18T11:49:08.016Z,8.63
2018-05-18T11:50:08.165Z,8.69
2018-05-18T11:51:07.959Z,8.63
2018-05-18T11:52:07.921Z,8.49
2018-05-18T11:53:07.966Z,8.61
2018-05-18T11:54:07.945Z,8.68
2018-05-18T11:55:07.937Z,8.7
2018-05-18T11:56:07.975Z,8.72
2018-05-18T11:57:08.320Z,8.76
2018-05-18T11:58:07.957Z,8.51
2018-05-18T11:59:07.927Z,8.57
2018-05-18T12:00:08.022Z,8.51
2018-05-18T12:01:08.022Z,8.54
2018-05-18T12:02:07.962Z,8.59
2018-05-18T12:03:08.026Z,8.59
2018-05-18T12:04:08.031Z,8.68
2018-05-18T12:05:07.990Z,8.74
2018-05-18T12:06:07.929Z,8.82
2018-05-18T12:07:08.041Z,8.57
2018-05-18T12:08:08.206Z,8.8
2018-05-18T12:09:07.932Z,8.99
2018-05-18T12:10:08.016Z,8.66
2018-05-18T12:11:08.023Z,8.72
2018-05-18T12:12:07.942Z,8.45
2018-05-18T12:13:07.985Z,8.62
2018-05-18T12:14:08.362Z,8.65
2018-05-18T12:15:08.017Z,8.6
2018-05-18T12:16:08.061Z,8.28
2018-05-18T12:17:07.987Z,8.56
2018-05-18T12:18:08.127Z,8.61
2018-05-18T12:19:08.005Z,8.85
2018-05-18T12:20:08.226Z,8.68
2018-05-18T12:21:07.989Z,8.77
2018-05-18T12:22:08.169Z,8.45
2018-05-18T12:23:07.939Z,8.63
2018-05-18T12:24:07.938Z,8.5
2018-05-18T12:25:08.018Z,8.29
2018-05-18T12:26:08.588Z,8.45
2018-05-18T12:27:08.197Z,8.48
2018-05-18T12:28:07.980Z,8.59
2018-05-18T12:29:08.016Z,8.43
2018-05-18T12:30:07.975Z,8.5
2018-05-18T12:31:08.006Z,8.48
2018-05-18T12:32:07.955Z,8.53
2018-05-18T12:33:07.998Z,8.62
2018-05-18T12:34:08.056Z,8.5
2018-05-18T12:35:07.973Z,8.43
2018-05-18T12:36:08.000Z,8.28
2018-05-18T12:37:07.958Z,8.34
2018-05-18T12:38:08.791Z,8.25
2018-05-18T12:39:07.961Z,8.19
2018-05-18T12:40:07.945Z,8.3
2018-05-18T12:41:07.944Z,8.34
2018-05-18T12:42:08.041Z,8.45
2018-05-18T12:43:07.938Z,8.54
2018-05-18T12:44:07.980Z,8.28
2018-05-18T12:45:08.057Z,8.24
2018-05-18T12:46:08.519Z,8.14
2018-05-18T12:47:08.062Z,8.05
2018-05-18T12:48:07.968Z,8.11
2018-05-18T12:49:08.067Z,8.13
2018-05-18T12:50:08.095Z,8.17
2018-05-18T12:51:08.178Z,8.01
2018-05-18T12:52:07.979Z,8.09
2018-05-18T12:53:08.139Z,7.98
2018-05-18T12:54:09.277Z,8.07
2018-05-18T12:55:08.015Z,7.97
2018-05-18T12:56:08.098Z,7.97
2018-05-18T12:57:08.124Z,7.78
2018-05-18T12:58:08.192Z,7.65
2018-05-18T12:59:08.133Z,7.81
2018-05-18T13:00:08.144Z,7.91
2018-05-18T13:01:08.005Z,7.98
2018-05-18T13:02:08.234Z,8.06
2018-05-18T13:03:08.017Z,7.98
2018-05-18T13:04:08.110Z,8.22
2018-05-18T13:05:08.079Z,8.28
2018-05-18T13:06:08.029Z,7.85
2018-05-18T13:07:08.184Z,7.77
2018-05-18T13:08:08.870Z,7.95
2018-05-18T13:09:09.156Z,7.97
2018-05-18T13:10:07.979Z,8.06
2018-05-18T13:11:08.121Z,8.02
2018-05-18T13:12:08.131Z,7.86
2018-05-18T13:13:08.044Z,7.87
2018-05-18T13:14:08.227Z,7.89
2018-05-18T13:15:08.368Z,7.71
2018-05-18T13:16:08.166Z,7.7
2018-05-18T13:17:08.251Z,7.95
2018-05-18T13:18:08.176Z,8.03
2018-05-18T13:19:08.087Z,8.08
2018-05-18T13:20:08.024Z,8.06
2018-05-18T13:21:08.295Z,7.93